Time;durP1;ratioP1;P1;durP2;ratioP2;P2;SDS_P1;SDS_P2;PMS_P1;PMS_P2;Temp;Humidity;BMP_temperature;BMP_pressure;BME280_temperature;BME280_humidity;BME280_pressure;Samples;Min_cycle;Max_cycle;Signal;HPM_P1;HPM_P2
2022/12/05 00:00:02;;;;;;;;;;;;;;;9.87;53.83;99231.41;4475968;31;19987;-80
2022/12/05 00:02:28;;;;;;;;;;;;;;;9.86;53.82;99227.91;4503351;31;20231;-80
2022/12/05 00:04:53;;;;;;;;;;;;;;;9.82;54.03;99226.34;4503301;31;19994;-80
2022/12/05 00:07:18;;;;;;;;;;;;;;;9.86;53.77;99233.19;4488848;31;19976;-80
2022/12/05 00:09:43;;;;;;;;;;;;;;;9.83;53.65;99226.28;4503329;31;20016;-80
2022/12/05 00:12:08;;;;;;;;;;;;;;;9.81;53.76;99229.88;4503354;31;19972;-80
2022/12/05 00:14:34;;;;;;;;;;;;;;;9.80;53.69;99229.03;4488850;31;19975;-80
2022/12/05 00:16:59;;;;;;;;;;;;;;;9.80;53.71;99231.66;4503292;31;20311;-80
2022/12/05 00:19:24;;;;;;;;;;;;;;;9.82;53.71;99228.97;4503258;31;20397;-80
2022/12/05 00:21:49;;;;;;;;;;;;;;;9.79;53.70;99223.84;4488927;31;19967;-80
2022/12/05 00:24:15;;;;;;;;;;;;;;;9.78;53.80;99219.53;4503312;31;19999;-80
2022/12/05 00:26:40;;;;;;;;;;;;;;;9.80;53.75;99226.41;4503344;31;20350;-80
2022/12/05 00:29:05;;;;;;;;;;;;;;;9.70;53.92;99219.84;4488855;31;19980;-80
2022/12/05 00:31:30;;;;;;;;;;;;;;;9.80;53.76;99225.56;4503210;31;20002;-80
2022/12/05 00:33:58;;;;;;;;;;;;;;;9.77;53.84;99218.69;4503022;31;19998;-80
2022/12/05 00:36:24;;;;;;;;;;;;;;;9.70;53.98;99206.69;4488385;31;20044;-80
2022/12/05 00:38:50;;;;;;;;;;;;;;;9.75;54.03;99204.69;4488581;31;19983;-80
2022/12/05 00:41:16;;;;;;;;;;;;;;;9.56;54.40;99215.22;4488771;31;20004;-80
2022/12/05 00:43:42;;;;;;;;;;;;;;;9.68;54.18;99213.81;4503011;31;19967;-80
2022/12/05 00:46:08;;;;;;;;;;;;;;;9.71;54.21;99221.53;4502938;31;20007;-80
2022/12/05 00:48:33;;;;;;;;;;;;;;;9.71;54.06;99212.81;4475667;31;20046;-80
2022/12/05 00:51:03;;;;;;;;;;;;;;;9.63;54.06;99219.25;4503089;31;19976;-80
2022/12/05 00:53:28;;;;;;;;;;;;;;;9.63;54.29;99216.63;4502859;31;19999;-80
2022/12/05 00:55:53;;;;;;;;;;;;;;;9.63;54.54;99213.16;4502911;31;19967;-79
2022/12/05 00:58:19;;;;;;;;;;;;;;;9.58;54.91;99218.63;4502923;31;19979;-79
2022/12/05 01:00:44;;;;;;;;;;;;;;;9.56;55.03;99216.97;4502929;31;20263;-79
2022/12/05 01:03:09;;;;;;;;;;;;;;;9.52;55.23;99216.25;4502731;31;19993;-79
2022/12/05 01:05:34;;;;;;;;;;;;;;;9.53;55.26;99220.59;4502777;31;20019;-79
2022/12/05 01:08:00;;;;;;;;;;;;;;;9.53;55.15;99209.22;4502812;31;19991;-79
2022/12/05 01:10:25;;;;;;;;;;;;;;;9.53;55.26;99204.81;4502730;31;19987;-80
2022/12/05 01:12:50;;;;;;;;;;;;;;;9.55;55.35;99202.13;4488265;31;19994;-80
2022/12/05 01:15:15;;;;;;;;;;;;;;;9.51;55.70;99208.44;4502711;31;20255;-80
2022/12/05 01:17:40;;;;;;;;;;;;;;;9.56;55.55;99201.19;4502697;31;20019;-80
2022/12/05 01:20:06;;;;;;;;;;;;;;;9.52;55.59;99197.84;4488282;31;19989;-80
2022/12/05 01:22:31;;;;;;;;;;;;;;;9.48;55.58;99203.28;4488067;31;20312;-80
2022/12/05 01:24:57;;;;;;;;;;;;;;;9.48;55.45;99196.25;4502578;31;19997;-80
2022/12/05 01:27:22;;;;;;;;;;;;;;;9.46;55.64;99198.09;4502664;31;19975;-80
2022/12/05 01:29:48;;;;;;;;;;;;;;;9.42;55.53;99199.16;4488095;31;19983;-80
2022/12/05 01:32:13;;;;;;;;;;;;;;;9.49;55.43;99197.12;4488281;31;20006;-80
2022/12/05 01:34:38;;;;;;;;;;;;;;;9.39;55.68;99199.31;4502353;31;19975;-80
2022/12/05 01:37:03;;;;;;;;;;;;;;;9.44;55.36;99199.94;4502506;31;19998;-80
2022/12/05 01:39:29;;;;;;;;;;;;;;;9.39;55.39;99194.88;4502449;31;19967;-81
2022/12/05 01:41:54;;;;;;;;;;;;;;;9.41;55.46;99195.69;4502217;31;20028;-81
2022/12/05 01:44:22;;;;;;;;;;;;;;;9.40;55.58;99193.09;4502157;31;19967;-81
2022/12/05 01:46:48;;;;;;;;;;;;;;;9.38;55.67;99205.47;4502334;31;19988;-81
2022/12/05 01:49:14;;;;;;;;;;;;;;;9.35;55.68;99197.69;4502746;31;19978;-81
2022/12/05 01:51:41;;;;;;;;;;;;;;;9.35;55.80;99203.84;4489996;31;20082;-81
2022/12/05 01:54:07;;;;;;;;;;;;;;;9.06;56.67;99194.56;4489895;31;19980;-79
2022/12/05 01:56:32;;;;;;;;;;;;;;;9.26;56.48;99198.97;4504393;31;20020;-79
2022/12/05 01:58:58;;;;;;;;;;;;;;;9.34;56.40;99202.13;4490011;31;20019;-79
2022/12/05 02:01:23;;;;;;;;;;;;;;;9.36;56.40;99196.78;4504347;31;19981;-79
2022/12/05 02:03:49;;;;;;;;;;;;;;;9.38;56.44;99201.06;4489974;31;20010;-79
2022/12/05 02:06:14;;;;;;;;;;;;;;;9.12;56.94;99194.28;4489900;31;19987;-80
2022/12/05 02:08:40;;;;;;;;;;;;;;;9.33;56.41;99192.53;4489839;31;20002;-80
2022/12/05 02:11:05;;;;;;;;;;;;;;;9.34;56.25;99191.59;4489853;31;19995;-79
2022/12/05 02:13:49;;;;;;;;;;;;;;;9.31;56.50;99194.38;4504094;31;19971;-80
2022/12/05 02:16:33;;;;;;;;;;;;;;;9.30;56.60;99199.69;4489784;31;19996;-79
2022/12/05 02:19:01;;;;;;;;;;;;;;;9.36;56.60;99194.16;4504093;31;20027;-80
2022/12/05 02:21:26;;;;;;;;;;;;;;;9.29;56.72;99190.97;4504040;31;20016;-80
2022/12/05 02:24:10;;;;;;;;;;;;;;;9.32;56.62;99189.97;4504113;31;19975;-79
2022/12/05 02:26:54;;;;;;;;;;;;;;;9.39;56.60;99201.94;4489978;31;20052;-79
2022/12/05 02:29:22;;;;;;;;;;;;;;;9.43;56.59;99206.13;4504120;31;20307;-79
2022/12/05 02:31:51;;;;;;;;;;;;;;;9.43;56.66;99204.34;4503994;31;19972;-80
2022/12/05 02:34:19;;;;;;;;;;;;;;;9.43;56.52;99199.09;4489675;31;19976;-79
2022/12/05 02:36:47;;;;;;;;;;;;;;;9.45;56.53;99206.91;4504071;31;20028;-79
2022/12/05 02:39:15;;;;;;;;;;;;;;;9.48;56.45;99212.03;4503964;31;20024;-80
2022/12/05 02:42:10;;;;;;;;;;;;;;;9.47;56.61;99209.50;4504030;31;20311;-79
2022/12/05 02:44:37;;;;;;;;;;;;;;;9.48;56.61;99211.19;4486781;31;20615;-79
2022/12/05 02:47:02;;;;;;;;;;;;;;;9.49;56.62;99211.13;4489902;31;20290;-79
2022/12/05 02:49:29;;;;;;;;;;;;;;;9.51;56.61;99203.16;4489823;31;19968;-79
2022/12/05 02:51:56;;;;;;;;;;;;;;;9.50;56.55;99206.72;4489535;31;20423;-80
2022/12/05 02:54:23;;;;;;;;;;;;;;;9.25;57.30;99207.75;4476310;31;20314;-79
2022/12/05 02:56:48;;;;;;;;;;;;;;;9.34;57.06;99209.16;4489730;31;20005;-80
2022/12/05 02:59:13;;;;;;;;;;;;;;;9.37;57.08;99212.50;4503725;31;19968;-79
2022/12/05 03:01:38;;;;;;;;;;;;;;;9.36;57.04;99212.56;4503282;31;20277;-81
2022/12/05 03:04:04;;;;;;;;;;;;;;;9.12;57.64;99220.59;4503847;31;19967;-81
2022/12/05 03:06:31;;;;;;;;;;;;;;;9.05;58.05;99216.50;4489562;31;20018;-80
2022/12/05 03:08:59;;;;;;;;;;;;;;;9.25;57.63;99213.88;4503680;31;19990;-80
2022/12/05 03:11:24;;;;;;;;;;;;;;;9.33;57.43;99224.09;4503803;31;19977;-80
2022/12/05 03:13:50;;;;;;;;;;;;;;;9.33;57.49;99216.19;4489335;31;19989;-79
2022/12/05 03:16:17;;;;;;;;;;;;;;;9.37;57.50;99214.28;4503645;31;19987;-80
2022/12/05 03:18:47;;;;;;;;;;;;;;;9.37;57.47;99220.41;4489454;31;19979;-80
2022/12/05 03:21:26;;;;;;;;;;;;;;;9.38;57.44;99216.84;4489378;31;20315;-80
2022/12/05 03:23:53;;;;;;;;;;;;;;;9.41;57.40;99214.09;4489341;31;20300;-80
2022/12/05 03:26:31;;;;;;;;;;;;;;;9.40;57.42;99209.72;4476389;31;20475;-80
2022/12/05 03:29:02;;;;;;;;;;;;;;;9.41;57.54;99215.87;4503641;31;20018;-80
2022/12/05 03:31:34;;;;;;;;;;;;;;;9.29;57.88;99217.25;4503617;31;19994;-80
2022/12/05 03:33:59;;;;;;;;;;;;;;;9.36;57.66;99216.03;4489453;31;20321;-80
2022/12/05 03:36:29;;;;;;;;;;;;;;;9.41;57.71;99215.87;4489110;31;20027;-80
2022/12/05 03:39:15;;;;;;;;;;;;;;;9.45;57.55;99220.06;4489344;31;19988;-80
2022/12/05 03:41:41;;;;;;;;;;;;;;;9.42;57.64;99215.78;4489519;31;20317;-80
2022/12/05 03:44:23;;;;;;;;;;;;;;;9.44;57.59;99213.09;4489047;31;19986;-80
2022/12/05 03:46:52;;;;;;;;;;;;;;;9.44;57.69;99213.97;4503601;31;19987;-79
2022/12/05 03:49:23;;;;;;;;;;;;;;;9.45;57.76;99212.19;4489191;31;20047;-80
2022/12/05 03:51:52;;;;;;;;;;;;;;;9.42;57.84;99204.41;4475975;31;19999;-80
2022/12/05 03:54:20;;;;;;;;;;;;;;;9.42;57.89;99207.87;4488996;31;19983;-79
2022/12/05 03:56:46;;;;;;;;;;;;;;;9.48;57.81;99203.28;4489491;31;19991;-80
2022/12/05 03:59:18;;;;;;;;;;;;;;;9.47;57.88;99206.88;4489450;31;20035;-80
2022/12/05 04:01:43;;;;;;;;;;;;;;;9.45;57.89;99201.66;4503343;31;19975;-80
2022/12/05 04:04:13;;;;;;;;;;;;;;;9.32;58.22;99213.63;4489130;31;20036;-80
2022/12/05 04:06:38;;;;;;;;;;;;;;;9.33;58.25;99205.69;4489155;31;20007;-80
2022/12/05 04:09:17;;;;;;;;;;;;;;;9.31;58.42;99211.91;4488943;31;20339;-80
2022/12/05 04:11:47;;;;;;;;;;;;;;;9.31;58.47;99214.53;4502275;31;19991;-81
2022/12/05 04:14:14;;;;;;;;;;;;;;;9.33;58.57;99221.44;4488911;31;20667;-80
2022/12/05 04:19:26;;;;;;;;;;;;;;;9.44;58.33;99210.47;4503411;31;20058;-80
2022/12/05 04:21:53;;;;;;;;;;;;;;;9.47;58.24;99212.12;4503385;31;20519;-80
2022/12/05 04:27:16;;;;;;;;;;;;;;;9.44;58.31;99205.19;4503391;31;20001;-80
2022/12/05 04:29:44;;;;;;;;;;;;;;;9.45;58.28;99209.56;4488895;31;19967;-80
2022/12/05 04:32:09;;;;;;;;;;;;;;;9.41;58.34;99208.81;4475689;31;20042;-81
2022/12/05 04:34:34;;;;;;;;;;;;;;;9.44;58.27;99210.47;4488744;31;19999;-80
2022/12/05 04:37:04;;;;;;;;;;;;;;;9.39;58.52;99212.44;4488789;31;19987;-80
2022/12/05 04:39:32;;;;;;;;;;;;;;;9.40;58.48;99208.87;4488720;31;19971;-80
2022/12/05 04:42:01;;;;;;;;;;;;;;;9.41;58.44;99207.97;4503111;31;19983;-81
2022/12/05 04:44:31;;;;;;;;;;;;;;;9.39;58.59;99208.03;4488711;31;19979;-80
2022/12/05 04:46:57;;;;;;;;;;;;;;;9.38;58.64;99205.47;4488750;31;20339;-80
2022/12/05 04:49:23;;;;;;;;;;;;;;;9.38;58.65;99201.06;4503090;31;20020;-80
2022/12/05 04:51:49;;;;;;;;;;;;;;;9.37;58.68;99201.16;4488681;31;20002;-80
2022/12/05 04:54:28;;;;;;;;;;;;;;;9.34;58.82;99198.63;4488499;31;20003;-81
2022/12/05 04:56:54;;;;;;;;;;;;;;;9.30;58.71;99194.44;4488740;31;19991;-81
2022/12/05 04:59:20;;;;;;;;;;;;;;;9.26;58.88;99201.59;4503035;31;19982;-81
2022/12/05 05:01:47;;;;;;;;;;;;;;;9.25;58.98;99199.88;4488531;31;20007;-81
2022/12/05 05:04:16;;;;;;;;;;;;;;;9.28;58.97;99189.22;4488598;31;20331;-80
2022/12/05 05:06:41;;;;;;;;;;;;;;;8.91;59.97;99187.31;4488618;31;19983;-81
2022/12/05 05:09:07;;;;;;;;;;;;;;;9.11;59.44;99194.34;4502815;31;20004;-80
2022/12/05 05:11:32;;;;;;;;;;;;;;;9.20;59.33;99192.19;4502823;31;19985;-80
2022/12/05 05:13:58;;;;;;;;;;;;;;;9.20;59.32;99192.19;4488376;31;19998;-80
2022/12/05 05:16:24;;;;;;;;;;;;;;;9.17;59.41;99192.31;4488462;31;19979;-79
2022/12/05 05:18:49;;;;;;;;;;;;;;;9.20;59.35;99196.59;4488574;31;20379;-80
2022/12/05 05:21:19;;;;;;;;;;;;;;;9.27;59.34;99202.44;4488379;31;19987;-80
2022/12/05 05:23:44;;;;;;;;;;;;;;;9.27;59.20;99211.16;4487972;31;20014;-80
2022/12/05 05:26:09;;;;;;;;;;;;;;;9.28;59.30;99219.94;4502754;31;19979;-80
2022/12/05 05:28:35;;;;;;;;;;;;;;;9.21;59.51;99227.22;4502552;31;20467;-81
2022/12/05 05:31:01;;;;;;;;;;;;;;;9.27;59.37;99221.69;4488275;31;20113;-81
2022/12/05 05:33:26;;;;;;;;;;;;;;;9.33;59.23;99217.94;4488137;31;20050;-81
2022/12/05 05:35:51;;;;;;;;;;;;;;;8.73;60.81;99217.78;4502509;31;19979;-81
2022/12/05 05:38:16;;;;;;;;;;;;;;;9.12;59.72;99210.06;4502531;31;19964;-81
2022/12/05 05:40:42;;;;;;;;;;;;;;;9.21;59.63;99211.44;4502113;31;19971;-81
2022/12/05 05:43:07;;;;;;;;;;;;;;;9.26;59.40;99214.72;4502240;31;19978;-81
2022/12/05 05:45:32;;;;;;;;;;;;;;;9.19;59.60;99222.03;4488249;31;20001;-80
2022/12/05 05:47:57;;;;;;;;;;;;;;;9.29;59.42;99213.75;4502584;31;19967;-79
2022/12/05 05:50:23;;;;;;;;;;;;;;;9.23;59.51;99226.25;4502678;31;19968;-79
2022/12/05 05:52:48;;;;;;;;;;;;;;;9.13;59.86;99229.31;4502272;31;20312;-79
2022/12/05 05:55:13;;;;;;;;;;;;;;;9.20;59.73;99230.78;4488077;31;20269;-79
2022/12/05 05:57:39;;;;;;;;;;;;;;;9.21;59.60;99219.31;4502481;31;19972;-79
2022/12/05 06:00:05;;;;;;;;;;;;;;;9.16;59.85;99224.78;4502303;31;20329;-79
2022/12/05 06:02:31;;;;;;;;;;;;;;;9.23;59.64;99228.88;4487778;31;20335;-80
2022/12/05 06:04:56;;;;;;;;;;;;;;;9.27;59.52;99221.69;4487726;31;20372;-79
2022/12/05 06:07:21;;;;;;;;;;;;;;;9.25;59.69;99227.03;4501861;31;19987;-80
2022/12/05 06:09:46;;;;;;;;;;;;;;;9.25;59.66;99229.66;4501782;31;19983;-79
2022/12/05 06:12:12;;;;;;;;;;;;;;;9.27;59.64;99232.19;4501945;31;19972;-80
2022/12/05 06:14:37;;;;;;;;;;;;;;;9.28;59.64;99243.59;4501761;31;19979;-79
2022/12/05 06:17:02;;;;;;;;;;;;;;;9.33;59.57;99241.59;4501879;31;20220;-79
2022/12/05 06:19:30;;;;;;;;;;;;;;;9.28;59.54;99247.06;4501657;31;19967;-79
2022/12/05 06:21:55;;;;;;;;;;;;;;;9.38;59.32;99247.53;4501808;31;19971;-79
2022/12/05 06:24:20;;;;;;;;;;;;;;;9.33;59.53;99252.13;4501714;31;19990;-79
2022/12/05 06:26:45;;;;;;;;;;;;;;;9.35;59.43;99252.91;4487362;31;20294;-79
2022/12/05 06:29:11;;;;;;;;;;;;;;;9.38;59.30;99244.91;4487552;31;19967;-79
2022/12/05 06:31:36;;;;;;;;;;;;;;;9.36;59.43;99242.34;4501623;31;19986;-81
2022/12/05 06:34:01;;;;;;;;;;;;;;;9.30;59.59;99247.00;4501619;31;19984;-80
2022/12/05 06:36:28;;;;;;;;;;;;;;;9.38;59.43;99252.78;4503339;31;20002;-80
2022/12/05 06:38:53;;;;;;;;;;;;;;;9.40;59.34;99254.44;4503993;31;19999;-81
2022/12/05 06:41:19;;;;;;;;;;;;;;;9.36;59.50;99250.22;4489609;31;19998;-81
2022/12/05 06:43:44;;;;;;;;;;;;;;;9.43;59.38;99248.22;4489389;31;19994;-80
2022/12/05 06:46:11;;;;;;;;;;;;;;;9.42;59.33;99247.34;4476518;31;19968;-80
2022/12/05 06:48:36;;;;;;;;;;;;;;;9.43;59.34;99249.06;4489572;31;19976;-81
2022/12/05 06:51:02;;;;;;;;;;;;;;;9.44;59.41;99250.78;4503868;31;20010;-80
2022/12/05 06:53:27;;;;;;;;;;;;;;;9.49;59.26;99249.72;4504045;31;19979;-80
2022/12/05 06:56:02;;;;;;;;;;;;;;;9.48;59.13;99248.00;4503874;31;19968;-83
2022/12/05 06:58:28;;;;;;;;;;;;;;;9.45;59.16;99256.88;4503808;31;20060;-81
2022/12/05 07:03:37;;;;;;;;;;;;;;;9.48;59.15;99254.09;4491720;31;20051;-82
2022/12/05 07:06:03;;;;;;;;;;;;;;;9.42;59.38;99263.09;4503687;31;19972;-83
2022/12/05 07:08:29;;;;;;;;;;;;;;;9.48;59.29;99267.25;4476186;31;20096;-83
2022/12/05 07:10:54;;;;;;;;;;;;;;;9.50;59.30;99277.72;4503750;31;20101;-77
2022/12/05 07:13:19;;;;;;;;;;;;;;;9.54;59.19;99277.53;4503706;31;20006;-82
2022/12/05 07:15:45;;;;;;;;;;;;;;;9.50;59.26;99281.19;4503652;31;19987;-81
2022/12/05 07:18:10;;;;;;;;;;;;;;;9.45;59.35;99284.03;4493623;31;20003;-81
2022/12/05 07:20:35;;;;;;;;;;;;;;;9.55;59.06;99281.88;4492930;31;20031;-81
2022/12/05 07:23:01;;;;;;;;;;;;;;;9.54;59.08;99288.06;4492194;31;19979;-80
2022/12/05 07:25:26;;;;;;;;;;;;;;;9.44;59.33;99279.72;4483862;31;20020;-80
2022/12/05 07:27:51;;;;;;;;;;;;;;;9.52;59.24;99276.75;4489835;31;19972;-80
2022/12/05 07:30:17;;;;;;;;;;;;;;;9.60;59.03;99279.03;4499480;31;20012;-81
2022/12/05 07:32:42;;;;;;;;;;;;;;;9.65;58.88;99267.38;4479325;31;20224;-80
2022/12/05 07:35:07;;;;;;;;;;;;;;;9.60;59.07;99282.53;4482259;31;19991;-81
2022/12/05 07:37:33;;;;;;;;;;;;;;;9.62;58.94;99287.75;4476581;32;20295;-80
2022/12/05 07:39:58;;;;;;;;;;;;;;;9.59;58.96;99293.97;4500101;31;20577;-81
2022/12/05 07:42:23;;;;;;;;;;;;;;;9.64;58.86;99296.41;4491322;31;19975;-80
2022/12/05 07:44:48;;;;;;;;;;;;;;;9.48;59.16;99293.56;4481202;32;19968;-81
2022/12/05 07:47:14;;;;;;;;;;;;;;;9.65;58.87;99306.84;4496826;31;19979;-80
2022/12/05 07:49:39;;;;;;;;;;;;;;;9.64;58.87;99297.25;4476106;32;19996;-81
2022/12/05 07:52:04;;;;;;;;;;;;;;;9.71;58.70;99302.25;4485561;31;19996;-81
2022/12/05 07:54:30;;;;;;;;;;;;;;;9.81;58.45;99295.66;4492158;31;19967;-81
2022/12/05 07:56:55;;;;;;;;;;;;;;;9.79;58.42;99305.41;4494838;31;20332;-80
2022/12/05 07:59:20;;;;;;;;;;;;;;;9.83;58.37;99294.72;4496382;31;20028;-82
2022/12/05 08:01:45;;;;;;;;;;;;;;;9.84;58.36;99296.41;4487695;31;20047;-82
2022/12/05 08:04:11;;;;;;;;;;;;;;;9.86;58.16;99298.97;4486364;32;19971;-82
2022/12/05 08:06:36;;;;;;;;;;;;;;;9.91;57.97;99299.63;4487780;32;19978;-82
2022/12/05 08:09:01;;;;;;;;;;;;;;;9.92;58.02;99306.59;4487382;32;20058;-82
2022/12/05 08:11:28;;;;;;;;;;;;;;;9.98;58.01;99305.47;4472798;32;19984;-82
2022/12/05 08:13:54;;;;;;;;;;;;;;;10.06;57.80;99311.25;4487539;31;20024;-82
2022/12/05 08:16:20;;;;;;;;;;;;;;;10.10;57.65;99302.31;4487357;32;19972;-82
2022/12/05 08:18:45;;;;;;;;;;;;;;;10.12;57.39;99303.09;4473106;32;20407;-82
2022/12/05 08:21:12;;;;;;;;;;;;;;;10.15;57.42;99304.72;4487459;31;20003;-82
2022/12/05 08:23:37;;;;;;;;;;;;;;;10.16;57.27;99316.97;4487419;31;19990;-82
2022/12/05 08:26:10;;;;;;;;;;;;;;;10.14;57.40;99311.78;4486227;32;19987;-82
2022/12/05 08:28:35;;;;;;;;;;;;;;;10.09;57.49;99315.53;4486017;32;19987;-82
2022/12/05 08:31:05;;;;;;;;;;;;;;;10.14;57.23;99314.41;4486074;32;20006;-82
2022/12/05 08:33:30;;;;;;;;;;;;;;;10.05;57.46;99312.19;4487252;31;20024;-82
2022/12/05 08:35:55;;;;;;;;;;;;;;;10.12;57.27;99318.91;4486056;32;20335;-82
2022/12/05 08:38:20;;;;;;;;;;;;;;;10.18;57.01;99313.34;4487111;32;19976;-82
2022/12/05 08:40:46;;;;;;;;;;;;;;;10.19;57.02;99317.69;4487259;32;19988;-82
2022/12/05 08:43:12;;;;;;;;;;;;;;;10.08;57.42;99319.09;4487142;31;20316;-82
2022/12/05 08:45:37;;;;;;;;;;;;;;;10.14;57.26;99322.31;4487285;32;19972;-82
2022/12/05 08:48:02;;;;;;;;;;;;;;;10.11;57.29;99314.53;4487189;32;19984;-82
2022/12/05 08:50:27;;;;;;;;;;;;;;;9.97;57.50;99323.03;4486010;32;20241;-82
2022/12/05 08:52:52;;;;;;;;;;;;;;;10.01;57.60;99319.34;4487055;32;20015;-82
2022/12/05 08:55:18;;;;;;;;;;;;;;;10.07;57.45;99320.03;4487024;32;19964;-82
2022/12/05 08:57:43;;;;;;;;;;;;;;;10.16;57.37;99322.22;4485117;32;19980;-82
2022/12/05 09:00:08;;;;;;;;;;;;;;;10.18;57.33;99320.41;4487045;32;19972;-82
2022/12/05 09:02:34;;;;;;;;;;;;;;;10.21;57.30;99318.47;4486047;32;19964;-82
2022/12/05 09:04:59;;;;;;;;;;;;;;;10.28;56.98;99316.44;4486991;32;19972;-82
2022/12/05 09:07:24;;;;;;;;;;;;;;;10.37;56.80;99305.53;4485797;32;20320;-82
2022/12/05 09:09:51;;;;;;;;;;;;;;;10.39;56.53;99319.47;4487209;32;19976;-82
2022/12/05 09:12:16;;;;;;;;;;;;;;;10.41;56.51;99306.22;4487014;31;19979;-83
2022/12/05 09:14:41;;;;;;;;;;;;;;;10.36;56.62;99316.13;4486831;32;20004;-82
2022/12/05 09:17:07;;;;;;;;;;;;;;;10.45;56.43;99302.53;4472743;32;19988;-82
2022/12/05 09:19:32;;;;;;;;;;;;;;;10.52;56.10;99311.84;4486902;32;19980;-82
2022/12/05 09:21:57;;;;;;;;;;;;;;;10.57;56.08;99303.75;4486970;32;20017;-82
2022/12/05 09:24:23;;;;;;;;;;;;;;;10.56;56.04;99302.03;4486898;32;20318;-82
2022/12/05 09:26:48;;;;;;;;;;;;;;;10.55;55.93;99308.22;4486871;31;19976;-82
2022/12/05 09:29:14;;;;;;;;;;;;;;;10.65;55.90;99295.50;4485731;32;19999;-82
2022/12/05 09:31:41;;;;;;;;;;;;;;;10.79;55.58;99298.31;4486743;31;20288;-82
2022/12/05 09:34:07;;;;;;;;;;;;;;;10.84;55.45;99290.22;4486518;32;19986;-82
2022/12/05 09:36:32;;;;;;;;;;;;;;;10.81;55.23;99302.56;4485440;32;20338;-82
2022/12/05 09:39:02;;;;;;;;;;;;;;;10.82;55.08;99299.03;4486538;32;20010;-82
2022/12/05 09:44:18;;;;;;;;;;;;;;;10.86;55.12;99294.47;4485397;32;19975;-82
2022/12/05 09:46:44;;;;;;;;;;;;;;;10.86;55.08;99296.25;4486473;32;19987;-82
2022/12/05 09:49:09;;;;;;;;;;;;;;;10.86;54.94;99289.19;4486542;32;19980;-82
2022/12/05 09:51:35;;;;;;;;;;;;;;;10.81;54.98;99286.75;4485311;32;19968;-82
2022/12/05 09:54:00;;;;;;;;;;;;;;;10.75;55.36;99288.84;4472103;32;19983;-82
2022/12/05 09:56:29;;;;;;;;;;;;;;;10.75;55.54;99286.22;4485176;32;20284;-82
2022/12/05 09:58:55;;;;;;;;;;;;;;;10.82;55.40;99292.91;4485295;32;20013;-82
2022/12/05 10:01:26;;;;;;;;;;;;;;;10.84;55.50;99284.94;4486297;31;20352;-82
2022/12/05 10:04:00;;;;;;;;;;;;;;;10.87;55.35;99277.72;4486269;31;19986;-82
2022/12/05 10:06:31;;;;;;;;;;;;;;;10.76;55.75;99285.31;4486266;32;20497;-82
2022/12/05 10:09:04;;;;;;;;;;;;;;;10.85;55.45;99284.84;4485192;32;19987;-82
2022/12/05 10:11:48;;;;;;;;;;;;;;;10.93;55.26;99271.28;4486799;32;19990;-82
2022/12/05 10:14:18;;;;;;;;;;;;;;;10.94;55.19;99275.66;4488564;31;20013;-82
2022/12/05 10:16:57;;;;;;;;;;;;;;;10.62;55.83;99265.72;4487403;32;20311;-82
2022/12/05 10:19:31;;;;;;;;;;;;;;;10.75;55.61;99260.72;4487130;32;20032;-82
2022/12/05 10:21:57;;;;;;;;;;;;;;;10.80;55.45;99256.09;4487406;32;20019;-82
2022/12/05 10:24:29;;;;;;;;;;;;;;;10.87;55.48;99258.41;4487175;32;20531;-82
2022/12/05 10:26:59;;;;;;;;;;;;;;;10.90;55.27;99248.59;4488117;32;19994;-82
2022/12/05 10:29:27;;;;;;;;;;;;;;;10.79;55.32;99250.88;4473680;32;19991;-83
2022/12/05 10:31:53;;;;;;;;;;;;;;;10.89;55.29;99254.78;4488074;32;19971;-82
2022/12/05 10:34:31;;;;;;;;;;;;;;;10.91;55.01;99252.06;4486861;32;20019;-82
2022/12/05 10:36:57;;;;;;;;;;;;;;;11.02;55.12;99245.34;4488235;32;20017;-82
2022/12/05 10:39:23;;;;;;;;;;;;;;;11.16;54.83;99239.41;4488270;31;19995;-82
2022/12/05 10:41:48;;;;;;;;;;;;;;;11.27;54.08;99238.84;4486930;32;20318;-82
2022/12/05 10:44:13;;;;;;;;;;;;;;;11.21;54.24;99247.06;4486826;32;19963;-82
2022/12/05 10:46:38;;;;;;;;;;;;;;;11.18;54.25;99245.47;4488118;32;19967;-82
2022/12/05 10:49:07;;;;;;;;;;;;;;;11.11;54.61;99235.28;4488228;32;20313;-82
2022/12/05 10:51:33;;;;;;;;;;;;;;;11.16;54.59;99227.97;4487066;32;20008;-82
2022/12/05 10:53:58;;;;;;;;;;;;;;;11.29;54.26;99221.16;4486891;32;20011;-82
2022/12/05 10:56:43;;;;;;;;;;;;;;;11.34;54.09;99226.22;4486751;32;19983;-82
2022/12/05 10:59:13;;;;;;;;;;;;;;;11.41;53.93;99232.88;4486950;32;20006;-82
2022/12/05 11:01:42;;;;;;;;;;;;;;;11.12;54.54;99234.34;4488004;31;20367;-82
2022/12/05 11:04:09;;;;;;;;;;;;;;;11.26;54.11;99233.66;4486792;32;20282;-82
2022/12/05 11:06:35;;;;;;;;;;;;;;;10.93;55.01;99219.44;4486858;32;19987;-82
2022/12/05 11:09:32;;;;;;;;;;;;;;;11.19;54.59;99228.69;4486822;32;20002;-82
2022/12/05 11:12:00;;;;;;;;;;;;;;;10.61;55.91;99226.28;4423561;32;20050;-82
2022/12/05 11:14:26;;;;;;;;;;;;;;;11.04;54.96;99225.97;4423524;32;20175;-82
2022/12/05 11:16:55;;;;;;;;;;;;;;;10.86;55.36;99215.41;4410828;32;19989;-82
2022/12/05 11:19:20;;;;;;;;;;;;;;;10.73;55.69;99220.41;4423678;32;20330;-82
2022/12/05 11:21:45;;;;;;;;;;;;;;;9.68;58.65;99221.69;4423205;32;20086;-82
2022/12/05 11:24:21;;;;;;;;;;;;;;;10.45;56.62;99210.34;4423376;32;20034;-82
2022/12/05 11:26:46;;;;;;;;;;;;;;;10.41;56.89;99214.91;4423604;32;20001;-82
2022/12/05 11:29:31;;;;;;;;;;;;;;;10.32;57.09;99212.69;4423402;32;20090;-82
2022/12/05 11:31:56;;;;;;;;;;;;;;;9.28;60.51;99222.56;4423565;32;19977;-82
2022/12/05 11:34:22;;;;;;;;;;;;;;;9.83;58.88;99214.88;4423286;32;19985;-82
2022/12/05 11:36:50;;;;;;;;;;;;;;;10.00;58.50;99216.75;4410681;32;20056;-82
2022/12/05 11:39:15;;;;;;;;;;;;;;;10.21;57.86;99215.78;4410746;32;20653;-82
2022/12/05 11:41:40;;;;;;;;;;;;;;;10.53;57.20;99210.81;4423488;32;20030;-82
2022/12/05 11:44:23;;;;;;;;;;;;;;;10.64;56.87;99212.94;4410377;32;20012;-82
2022/12/05 11:46:49;;;;;;;;;;;;;;;10.67;56.74;99206.69;4435960;32;20248;-82
2022/12/05 11:49:32;;;;;;;;;;;;;;;10.58;56.66;99190.38;4487741;32;19989;-82
2022/12/05 11:52:17;;;;;;;;;;;;;;;10.67;56.54;99186.44;4487987;31;20039;-82
2022/12/05 11:54:45;;;;;;;;;;;;;;;10.81;56.27;99183.13;4487936;31;19998;-82
2022/12/05 11:57:29;;;;;;;;;;;;;;;10.89;56.14;99178.31;4487668;32;19980;-82
2022/12/05 11:59:57;;;;;;;;;;;;;;;10.90;56.23;99184.47;4488011;31;19980;-82
2022/12/05 12:02:22;;;;;;;;;;;;;;;10.98;55.82;99187.56;4487931;32;20087;-82
2022/12/05 12:04:51;;;;;;;;;;;;;;;10.97;55.57;99184.09;4487555;32;20005;-82
2022/12/05 12:07:35;;;;;;;;;;;;;;;10.86;55.79;99182.94;4486373;32;20006;-82
2022/12/05 12:10:00;;;;;;;;;;;;;;;10.71;56.20;99173.97;4486735;32;19987;-82
2022/12/05 12:12:44;;;;;;;;;;;;;;;10.61;56.42;99177.06;4486260;32;20089;-82
2022/12/05 12:15:19;;;;;;;;;;;;;;;10.52;56.61;99181.91;4487699;31;19979;-82
2022/12/05 12:17:56;;;;;;;;;;;;;;;10.14;57.74;99174.88;4486531;32;20015;-82
2022/12/05 12:20:40;;;;;;;;;;;;;;;10.30;57.32;99177.69;4487535;31;20335;-82
2022/12/05 12:23:08;;;;;;;;;;;;;;;10.67;56.38;99183.81;4487580;31;20341;-82
2022/12/05 12:25:39;;;;;;;;;;;;;;;10.76;56.32;99178.09;4487570;32;19976;-82
2022/12/05 12:28:05;;;;;;;;;;;;;;;10.81;56.26;99173.44;4487387;32;20365;-82
2022/12/05 12:30:43;;;;;;;;;;;;;;;10.83;55.98;99165.47;4487552;32;19980;-82
2022/12/05 12:33:10;;;;;;;;;;;;;;;10.76;56.28;99164.94;4485331;32;20323;-82
2022/12/05 12:35:42;;;;;;;;;;;;;;;10.71;56.07;99155.53;4486258;32;20051;-82
2022/12/05 12:38:29;;;;;;;;;;;;;;;10.45;57.03;99156.78;4487503;32;20402;-82
2022/12/05 12:41:13;;;;;;;;;;;;;;;10.13;58.33;99161.78;4486262;32;20632;-82
2022/12/05 12:43:51;;;;;;;;;;;;;;;10.56;57.24;99165.03;4487232;31;20035;-82
2022/12/05 12:46:34;;;;;;;;;;;;;;;10.76;56.65;99161.44;4487330;32;19967;-82
2022/12/05 12:49:02;;;;;;;;;;;;;;;10.67;56.90;99156.63;4487369;32;19993;-82
2022/12/05 12:51:30;;;;;;;;;;;;;;;10.54;57.15;99157.19;4487303;31;20085;-82
2022/12/05 12:53:59;;;;;;;;;;;;;;;10.72;56.83;99158.09;4487215;31;19980;-82
2022/12/05 12:56:37;;;;;;;;;;;;;;;10.53;57.10;99160.78;4486109;32;19986;-82
2022/12/05 12:59:07;;;;;;;;;;;;;;;10.80;56.45;99152.47;4487353;31;19983;-82
2022/12/05 13:01:45;;;;;;;;;;;;;;;10.92;56.08;99143.94;4486318;32;19987;-82
2022/12/05 13:04:13;;;;;;;;;;;;;;;10.93;56.13;99143.00;4486053;32;20323;-82
2022/12/05 13:07:11;;;;;;;;;;;;;;;10.93;56.00;99143.00;4485964;32;19963;-82